sensor_id;sensor_type;location;lat;lon;timestamp;temperature;humidity
2647;DHT22;1333;50.958;6.770;2022-12-18T00:01:37;-5.80;99.90
2647;DHT22;1333;50.958;6.770;2022-12-18T00:04:15;-5.80;99.90
2647;DHT22;1333;50.958;6.770;2022-12-18T00:07:00;-5.90;99.90
2647;DHT22;1333;50.958;6.770;2022-12-18T00:09:26;-6.00;99.90
2647;DHT22;1333;50.958;6.770;2022-12-18T00:11:51;-6.00;99.90
2647;DHT22;1333;50.958;6.770;2022-12-18T00:14:17;-6.00;99.90
2647;DHT22;1333;50.958;6.770;2022-12-18T00:16:44;-6.00;99.90
2647;DHT22;1333;50.958;6.770;2022-12-18T00:19:11;-6.00;99.90
2647;DHT22;1333;50.958;6.770;2022-12-18T00:22:07;-6.00;99.90
2647;DHT22;1333;50.958;6.770;2022-12-18T00:24:53;-6.00;99.90
2647;DHT22;1333;50.958;6.770;2022-12-18T00:27:18;-6.10;99.90
2647;DHT22;1333;50.958;6.770;2022-12-18T00:29:44;-6.10;99.90
2647;DHT22;1333;50.958;6.770;2022-12-18T00:32:09;-6.10;99.90
2647;DHT22;1333;50.958;6.770;2022-12-18T00:34:35;-6.10;99.90
2647;DHT22;1333;50.958;6.770;2022-12-18T00:37:00;-6.10;99.90
2647;DHT22;1333;50.958;6.770;2022-12-18T00:39:26;-6.00;99.90
2647;DHT22;1333;50.958;6.770;2022-12-18T00:41:53;-6.00;99.90
2647;DHT22;1333;50.958;6.770;2022-12-18T00:44:37;-6.00;99.90
2647;DHT22;1333;50.958;6.770;2022-12-18T00:47:03;-6.00;99.90
2647;DHT22;1333;50.958;6.770;2022-12-18T00:49:28;-5.90;99.90
2647;DHT22;1333;50.958;6.770;2022-12-18T00:51:56;-5.90;99.90
2647;DHT22;1333;50.958;6.770;2022-12-18T00:54:28;-5.90;99.90
2647;DHT22;1333;50.958;6.770;2022-12-18T00:56:53;-6.00;99.90
2647;DHT22;1333;50.958;6.770;2022-12-18T00:59:20;-5.90;99.90
2647;DHT22;1333;50.958;6.770;2022-12-18T01:01:47;-6.00;99.90
2647;DHT22;1333;50.958;6.770;2022-12-18T01:04:15;-6.00;99.90
2647;DHT22;1333;50.958;6.770;2022-12-18T01:06:42;-6.10;99.90
2647;DHT22;1333;50.958;6.770;2022-12-18T01:09:07;-6.00;99.90
2647;DHT22;1333;50.958;6.770;2022-12-18T01:11:33;-6.00;99.90
2647;DHT22;1333;50.958;6.770;2022-12-18T01:13:58;-5.90;99.90
2647;DHT22;1333;50.958;6.770;2022-12-18T01:16:24;-5.90;99.90
2647;DHT22;1333;50.958;6.770;2022-12-18T01:18:53;-5.90;99.90
2647;DHT22;1333;50.958;6.770;2022-12-18T01:21:20;-5.80;99.90
2647;DHT22;1333;50.958;6.770;2022-12-18T01:23:46;-5.80;99.90
2647;DHT22;1333;50.958;6.770;2022-12-18T01:26:16;-5.80;99.90
2647;DHT22;1333;50.958;6.770;2022-12-18T01:28:42;-5.80;99.90
2647;DHT22;1333;50.958;6.770;2022-12-18T01:31:29;-5.70;99.90
2647;DHT22;1333;50.958;6.770;2022-12-18T01:33:55;-5.80;99.90
2647;DHT22;1333;50.958;6.770;2022-12-18T01:36:29;-5.70;99.90
2647;DHT22;1333;50.958;6.770;2022-12-18T01:38:56;-5.70;99.90
2647;DHT22;1333;50.958;6.770;2022-12-18T01:41:28;-5.70;99.90
2647;DHT22;1333;50.958;6.770;2022-12-18T01:48:02;-5.70;99.90
2647;DHT22;1333;50.958;6.770;2022-12-18T01:50:18;-5.80;99.90
2647;DHT22;1333;50.958;6.770;2022-12-18T01:52:54;-5.90;99.90
2647;DHT22;1333;50.958;6.770;2022-12-18T01:55:23;-5.90;99.90
2647;DHT22;1333;50.958;6.770;2022-12-18T01:57:52;-6.00;99.90
2647;DHT22;1333;50.958;6.770;2022-12-18T02:00:24;-6.00;99.90
2647;DHT22;1333;50.958;6.770;2022-12-18T02:02:53;-6.00;99.90
2647;DHT22;1333;50.958;6.770;2022-12-18T02:05:40;-6.10;99.90
2647;DHT22;1333;50.958;6.770;2022-12-18T02:10:44;-6.10;99.90
2647;DHT22;1333;50.958;6.770;2022-12-18T02:18:45;-6.10;99.90
2647;DHT22;1333;50.958;6.770;2022-12-18T02:24:10;-6.10;99.90
2647;DHT22;1333;50.958;6.770;2022-12-18T02:26:49;-6.00;99.90
2647;DHT22;1333;50.958;6.770;2022-12-18T02:29:46;-6.00;99.90
2647;DHT22;1333;50.958;6.770;2022-12-18T02:32:16;-6.00;99.90
2647;DHT22;1333;50.958;6.770;2022-12-18T02:34:43;-6.10;99.90
2647;DHT22;1333;50.958;6.770;2022-12-18T02:37:12;-6.10;99.90
2647;DHT22;1333;50.958;6.770;2022-12-18T02:39:42;-6.20;99.90
2647;DHT22;1333;50.958;6.770;2022-12-18T02:42:08;-6.20;99.90
2647;DHT22;1333;50.958;6.770;2022-12-18T02:44:45;-6.20;99.90
2647;DHT22;1333;50.958;6.770;2022-12-18T02:47:12;-6.20;99.90
2647;DHT22;1333;50.958;6.770;2022-12-18T02:52:31;-6.10;99.90
2647;DHT22;1333;50.958;6.770;2022-12-18T02:55:26;-6.10;99.90
2647;DHT22;1333;50.958;6.770;2022-12-18T03:03:31;-6.10;99.90
2647;DHT22;1333;50.958;6.770;2022-12-18T03:06:07;-6.00;99.90
2647;DHT22;1333;50.958;6.770;2022-12-18T03:08:38;-5.90;99.90
2647;DHT22;1333;50.958;6.770;2022-12-18T03:11:05;-6.00;99.90
2647;DHT22;1333;50.958;6.770;2022-12-18T03:13:38;-6.00;99.90
2647;DHT22;1333;50.958;6.770;2022-12-18T03:16:07;-6.00;99.90
2647;DHT22;1333;50.958;6.770;2022-12-18T03:18:47;-6.00;99.90
2647;DHT22;1333;50.958;6.770;2022-12-18T03:21:17;-6.00;99.90
2647;DHT22;1333;50.958;6.770;2022-12-18T03:23:48;-6.00;99.90
2647;DHT22;1333;50.958;6.770;2022-12-18T03:26:17;-6.00;99.90
2647;DHT22;1333;50.958;6.770;2022-12-18T03:28:53;-5.90;99.90
2647;DHT22;1333;50.958;6.770;2022-12-18T03:31:22;-5.80;99.90
2647;DHT22;1333;50.958;6.770;2022-12-18T03:33:54;-5.80;99.90
2647;DHT22;1333;50.958;6.770;2022-12-18T03:36:21;-5.70;99.90
2647;DHT22;1333;50.958;6.770;2022-12-18T03:38:47;-5.70;99.90
2647;DHT22;1333;50.958;6.770;2022-12-18T03:41:19;-5.70;99.90
2647;DHT22;1333;50.958;6.770;2022-12-18T03:43:57;-5.70;99.90
2647;DHT22;1333;50.958;6.770;2022-12-18T03:46:30;-5.70;99.90
2647;DHT22;1333;50.958;6.770;2022-12-18T03:49:01;-5.70;99.90
2647;DHT22;1333;50.958;6.770;2022-12-18T03:54:11;-5.70;99.90
2647;DHT22;1333;50.958;6.770;2022-12-18T03:56:48;-5.70;99.90
2647;DHT22;1333;50.958;6.770;2022-12-18T03:59:15;-5.60;99.90
2647;DHT22;1333;50.958;6.770;2022-12-18T04:01:46;-5.70;99.90
2647;DHT22;1333;50.958;6.770;2022-12-18T04:04:14;-5.70;99.90
2647;DHT22;1333;50.958;6.770;2022-12-18T04:06:41;-5.70;99.90
2647;DHT22;1333;50.958;6.770;2022-12-18T04:09:08;-5.70;99.90
2647;DHT22;1333;50.958;6.770;2022-12-18T04:11:33;-5.80;99.90
2647;DHT22;1333;50.958;6.770;2022-12-18T04:13:59;-5.80;99.90
2647;DHT22;1333;50.958;6.770;2022-12-18T04:16:26;-5.90;99.90
2647;DHT22;1333;50.958;6.770;2022-12-18T04:18:52;-5.90;99.90
2647;DHT22;1333;50.958;6.770;2022-12-18T04:21:18;-5.90;99.90
2647;DHT22;1333;50.958;6.770;2022-12-18T04:23:43;-5.90;99.90
2647;DHT22;1333;50.958;6.770;2022-12-18T04:26:09;-5.90;99.90
2647;DHT22;1333;50.958;6.770;2022-12-18T04:28:34;-5.90;99.90
2647;DHT22;1333;50.958;6.770;2022-12-18T04:31:00;-5.80;99.90
2647;DHT22;1333;50.958;6.770;2022-12-18T04:33:25;-5.80;99.90
2647;DHT22;1333;50.958;6.770;2022-12-18T04:35:51;-5.80;99.90
2647;DHT22;1333;50.958;6.770;2022-12-18T04:38:16;-5.80;99.90
2647;DHT22;1333;50.958;6.770;2022-12-18T04:40:42;-5.90;99.90
2647;DHT22;1333;50.958;6.770;2022-12-18T04:43:08;-5.80;99.90
2647;DHT22;1333;50.958;6.770;2022-12-18T04:45:33;-5.80;99.90
2647;DHT22;1333;50.958;6.770;2022-12-18T04:48:00;-5.90;99.90
2647;DHT22;1333;50.958;6.770;2022-12-18T04:50:26;-5.90;99.90
2647;DHT22;1333;50.958;6.770;2022-12-18T04:52:52;-5.90;99.90
2647;DHT22;1333;50.958;6.770;2022-12-18T04:55:18;-6.00;99.90
2647;DHT22;1333;50.958;6.770;2022-12-18T04:57:45;-6.00;99.90
2647;DHT22;1333;50.958;6.770;2022-12-18T05:00:11;-6.00;99.90
2647;DHT22;1333;50.958;6.770;2022-12-18T05:02:37;-6.10;99.90
2647;DHT22;1333;50.958;6.770;2022-12-18T05:05:03;-6.10;99.90
2647;DHT22;1333;50.958;6.770;2022-12-18T05:07:29;-6.10;99.90
2647;DHT22;1333;50.958;6.770;2022-12-18T05:09:55;-6.10;99.90
2647;DHT22;1333;50.958;6.770;2022-12-18T05:12:20;-6.00;99.90
2647;DHT22;1333;50.958;6.770;2022-12-18T05:14:49;-6.10;99.90
2647;DHT22;1333;50.958;6.770;2022-12-18T05:17:14;-6.10;99.90
2647;DHT22;1333;50.958;6.770;2022-12-18T05:19:40;-6.10;99.90
2647;DHT22;1333;50.958;6.770;2022-12-18T05:22:08;-6.10;99.90
2647;DHT22;1333;50.958;6.770;2022-12-18T05:24:37;-6.00;99.90
2647;DHT22;1333;50.958;6.770;2022-12-18T05:27:02;-6.00;99.90
2647;DHT22;1333;50.958;6.770;2022-12-18T05:29:31;-6.00;99.90
2647;DHT22;1333;50.958;6.770;2022-12-18T05:32:11;-6.00;99.90
2647;DHT22;1333;50.958;6.770;2022-12-18T05:34:37;-6.00;99.90
2647;DHT22;1333;50.958;6.770;2022-12-18T05:37:02;-6.00;99.90
2647;DHT22;1333;50.958;6.770;2022-12-18T05:39:28;-6.00;99.90
2647;DHT22;1333;50.958;6.770;2022-12-18T05:41:53;-6.00;99.90
2647;DHT22;1333;50.958;6.770;2022-12-18T05:44:19;-6.00;99.90
2647;DHT22;1333;50.958;6.770;2022-12-18T05:46:44;-6.00;99.90
2647;DHT22;1333;50.958;6.770;2022-12-18T05:49:10;-6.00;99.90
2647;DHT22;1333;50.958;6.770;2022-12-18T05:51:35;-5.90;99.90
2647;DHT22;1333;50.958;6.770;2022-12-18T05:54:01;-6.00;99.90
2647;DHT22;1333;50.958;6.770;2022-12-18T05:56:26;-5.90;99.90
2647;DHT22;1333;50.958;6.770;2022-12-18T05:58:53;-5.90;99.90
2647;DHT22;1333;50.958;6.770;2022-12-18T06:01:23;-5.90;99.90
2647;DHT22;1333;50.958;6.770;2022-12-18T06:03:48;-5.80;99.90
2647;DHT22;1333;50.958;6.770;2022-12-18T06:06:26;-5.90;99.90
2647;DHT22;1333;50.958;6.770;2022-12-18T06:08:55;-5.90;99.90
2647;DHT22;1333;50.958;6.770;2022-12-18T06:11:23;-5.90;99.90
2647;DHT22;1333;50.958;6.770;2022-12-18T06:13:56;-6.00;99.90
2647;DHT22;1333;50.958;6.770;2022-12-18T06:16:21;-6.00;99.90
2647;DHT22;1333;50.958;6.770;2022-12-18T06:18:47;-6.00;99.90
2647;DHT22;1333;50.958;6.770;2022-12-18T06:21:13;-6.00;99.90
2647;DHT22;1333;50.958;6.770;2022-12-18T06:23:39;-6.00;99.90
2647;DHT22;1333;50.958;6.770;2022-12-18T06:26:06;-6.10;99.90
2647;DHT22;1333;50.958;6.770;2022-12-18T06:28:32;-6.00;99.90
2647;DHT22;1333;50.958;6.770;2022-12-18T06:30:57;-6.10;99.90
2647;DHT22;1333;50.958;6.770;2022-12-18T06:33:26;-6.00;99.90
2647;DHT22;1333;50.958;6.770;2022-12-18T06:35:52;-5.90;99.90
2647;DHT22;1333;50.958;6.770;2022-12-18T06:38:17;-5.90;99.90
2647;DHT22;1333;50.958;6.770;2022-12-18T06:40:43;-6.00;99.90
2647;DHT22;1333;50.958;6.770;2022-12-18T06:43:08;-5.90;99.90
2647;DHT22;1333;50.958;6.770;2022-12-18T06:45:34;-5.90;99.90
2647;DHT22;1333;50.958;6.770;2022-12-18T06:47:59;-5.90;99.90
2647;DHT22;1333;50.958;6.770;2022-12-18T06:50:25;-5.90;99.90
2647;DHT22;1333;50.958;6.770;2022-12-18T06:52:51;-5.90;99.90
2647;DHT22;1333;50.958;6.770;2022-12-18T06:55:16;-5.90;99.90
2647;DHT22;1333;50.958;6.770;2022-12-18T06:57:42;-5.90;99.90
2647;DHT22;1333;50.958;6.770;2022-12-18T07:00:08;-5.90;99.90
2647;DHT22;1333;50.958;6.770;2022-12-18T07:02:34;-5.90;99.90
2647;DHT22;1333;50.958;6.770;2022-12-18T07:04:59;-5.90;99.90
2647;DHT22;1333;50.958;6.770;2022-12-18T07:07:25;-5.90;99.90
2647;DHT22;1333;50.958;6.770;2022-12-18T07:09:51;-5.90;99.90
2647;DHT22;1333;50.958;6.770;2022-12-18T07:12:17;-5.90;99.90
2647;DHT22;1333;50.958;6.770;2022-12-18T07:14:42;-5.90;99.90
2647;DHT22;1333;50.958;6.770;2022-12-18T07:17:08;-5.90;99.90
2647;DHT22;1333;50.958;6.770;2022-12-18T07:19:34;-5.80;99.90
2647;DHT22;1333;50.958;6.770;2022-12-18T07:21:59;-5.80;99.90
2647;DHT22;1333;50.958;6.770;2022-12-18T07:24:25;-5.80;99.90
2647;DHT22;1333;50.958;6.770;2022-12-18T07:26:51;-5.80;99.90
2647;DHT22;1333;50.958;6.770;2022-12-18T07:29:16;-5.80;99.90
2647;DHT22;1333;50.958;6.770;2022-12-18T07:31:42;-5.80;99.90
2647;DHT22;1333;50.958;6.770;2022-12-18T07:34:12;-5.80;99.90
2647;DHT22;1333;50.958;6.770;2022-12-18T07:36:38;-5.80;99.90
2647;DHT22;1333;50.958;6.770;2022-12-18T07:39:04;-5.70;99.90
2647;DHT22;1333;50.958;6.770;2022-12-18T07:41:29;-5.70;99.90
2647;DHT22;1333;50.958;6.770;2022-12-18T07:43:55;-5.60;99.90
2647;DHT22;1333;50.958;6.770;2022-12-18T07:46:21;-5.60;99.90
2647;DHT22;1333;50.958;6.770;2022-12-18T07:48:46;-5.60;99.90
2647;DHT22;1333;50.958;6.770;2022-12-18T07:51:12;-5.60;99.90
2647;DHT22;1333;50.958;6.770;2022-12-18T07:53:38;-5.50;99.90
2647;DHT22;1333;50.958;6.770;2022-12-18T07:56:07;-5.40;99.90
2647;DHT22;1333;50.958;6.770;2022-12-18T07:58:33;-5.30;99.90
2647;DHT22;1333;50.958;6.770;2022-12-18T08:01:07;-5.30;99.90
2647;DHT22;1333;50.958;6.770;2022-12-18T08:03:33;-5.20;99.90
2647;DHT22;1333;50.958;6.770;2022-12-18T08:06:00;-5.10;99.90
2647;DHT22;1333;50.958;6.770;2022-12-18T08:08:27;-5.00;99.90
2647;DHT22;1333;50.958;6.770;2022-12-18T08:10:53;-4.90;99.90
2647;DHT22;1333;50.958;6.770;2022-12-18T08:13:18;-4.60;99.90
2647;DHT22;1333;50.958;6.770;2022-12-18T08:15:44;-3.80;99.90
2647;DHT22;1333;50.958;6.770;2022-12-18T08:18:09;-3.20;99.90
2647;DHT22;1333;50.958;6.770;2022-12-18T08:20:35;-2.40;99.90
2647;DHT22;1333;50.958;6.770;2022-12-18T08:23:00;-1.80;99.90
2647;DHT22;1333;50.958;6.770;2022-12-18T08:25:26;-1.10;99.90
2647;DHT22;1333;50.958;6.770;2022-12-18T08:27:51;-0.40;99.90
2647;DHT22;1333;50.958;6.770;2022-12-18T08:30:17;0.20;99.90
2647;DHT22;1333;50.958;6.770;2022-12-18T08:32:43;0.60;99.90
2647;DHT22;1333;50.958;6.770;2022-12-18T08:35:08;0.90;99.90
2647;DHT22;1333;50.958;6.770;2022-12-18T08:37:34;0.90;99.90
2647;DHT22;1333;50.958;6.770;2022-12-18T08:39:59;1.20;99.90
2647;DHT22;1333;50.958;6.770;2022-12-18T08:42:25;1.20;99.90
2647;DHT22;1333;50.958;6.770;2022-12-18T08:45:14;1.20;99.90
2647;DHT22;1333;50.958;6.770;2022-12-18T08:47:39;1.20;99.90
2647;DHT22;1333;50.958;6.770;2022-12-18T08:50:05;1.20;99.90
2647;DHT22;1333;50.958;6.770;2022-12-18T08:52:32;1.60;99.90
2647;DHT22;1333;50.958;6.770;2022-12-18T08:54:57;2.10;99.90
2647;DHT22;1333;50.958;6.770;2022-12-18T08:57:23;2.50;99.90
2647;DHT22;1333;50.958;6.770;2022-12-18T08:59:48;2.60;99.90
2647;DHT22;1333;50.958;6.770;2022-12-18T09:02:14;2.80;99.90
2647;DHT22;1333;50.958;6.770;2022-12-18T09:04:39;2.90;99.90
2647;DHT22;1333;50.958;6.770;2022-12-18T09:07:05;3.10;99.90
2647;DHT22;1333;50.958;6.770;2022-12-18T09:09:31;3.20;99.90
2647;DHT22;1333;50.958;6.770;2022-12-18T09:11:56;2.80;99.90
2647;DHT22;1333;50.958;6.770;2022-12-18T09:14:21;2.50;99.90
2647;DHT22;1333;50.958;6.770;2022-12-18T09:16:47;2.00;99.90
2647;DHT22;1333;50.958;6.770;2022-12-18T09:19:13;1.80;99.90
2647;DHT22;1333;50.958;6.770;2022-12-18T09:21:38;1.60;99.90
2647;DHT22;1333;50.958;6.770;2022-12-18T09:24:05;1.50;99.90
2647;DHT22;1333;50.958;6.770;2022-12-18T09:26:30;1.60;99.90
2647;DHT22;1333;50.958;6.770;2022-12-18T09:28:56;2.00;99.90
2647;DHT22;1333;50.958;6.770;2022-12-18T09:31:23;2.50;99.90
2647;DHT22;1333;50.958;6.770;2022-12-18T09:33:50;2.80;99.90
2647;DHT22;1333;50.958;6.770;2022-12-18T09:36:16;3.20;99.90
2647;DHT22;1333;50.958;6.770;2022-12-18T09:38:42;3.40;99.90
2647;DHT22;1333;50.958;6.770;2022-12-18T09:49:27;2.20;99.90
2647;DHT22;1333;50.958;6.770;2022-12-18T09:52:11;2.20;99.90
2647;DHT22;1333;50.958;6.770;2022-12-18T09:54:45;2.40;99.90
2647;DHT22;1333;50.958;6.770;2022-12-18T09:57:19;2.30;99.90
2647;DHT22;1333;50.958;6.770;2022-12-18T09:59:56;2.10;99.90
2647;DHT22;1333;50.958;6.770;2022-12-18T10:02:25;1.80;99.90
2647;DHT22;1333;50.958;6.770;2022-12-18T10:05:15;1.70;99.90
2647;DHT22;1333;50.958;6.770;2022-12-18T10:10:57;1.80;99.90
2647;DHT22;1333;50.958;6.770;2022-12-18T10:19:26;2.00;99.90
2647;DHT22;1333;50.958;6.770;2022-12-18T10:25:13;2.50;99.90
2647;DHT22;1333;50.958;6.770;2022-12-18T10:27:41;3.00;99.90
2647;DHT22;1333;50.958;6.770;2022-12-18T10:30:20;3.10;99.90
2647;DHT22;1333;50.958;6.770;2022-12-18T10:32:46;3.30;99.90
2647;DHT22;1333;50.958;6.770;2022-12-18T10:35:26;3.50;99.90
2647;DHT22;1333;50.958;6.770;2022-12-18T10:40:57;4.00;99.90
2647;DHT22;1333;50.958;6.770;2022-12-18T10:43:35;4.10;99.90
2647;DHT22;1333;50.958;6.770;2022-12-18T10:46:14;4.10;99.90
2647;DHT22;1333;50.958;6.770;2022-12-18T10:51:40;4.10;99.70
2647;DHT22;1333;50.958;6.770;2022-12-18T10:54:12;4.00;99.90
2647;DHT22;1333;50.958;6.770;2022-12-18T10:56:40;3.80;99.90
2647;DHT22;1333;50.958;6.770;2022-12-18T10:59:08;3.70;99.90
2647;DHT22;1333;50.958;6.770;2022-12-18T11:04:20;3.10;99.90
2647;DHT22;1333;50.958;6.770;2022-12-18T11:07:06;3.10;99.90
2647;DHT22;1333;50.958;6.770;2022-12-18T11:09:41;3.10;99.90
2647;DHT22;1333;50.958;6.770;2022-12-18T11:12:16;3.20;99.90
2647;DHT22;1333;50.958;6.770;2022-12-18T11:14:48;3.00;99.90
2647;DHT22;1333;50.958;6.770;2022-12-18T11:17:43;3.00;99.90
2647;DHT22;1333;50.958;6.770;2022-12-18T11:20:26;2.90;99.90
2647;DHT22;1333;50.958;6.770;2022-12-18T11:23:00;2.70;99.90
2647;DHT22;1333;50.958;6.770;2022-12-18T11:25:26;2.40;99.90
2647;DHT22;1333;50.958;6.770;2022-12-18T11:28:00;2.30;99.90
2647;DHT22;1333;50.958;6.770;2022-12-18T11:30:38;2.30;99.90
2647;DHT22;1333;50.958;6.770;2022-12-18T11:33:20;2.30;99.90
2647;DHT22;1333;50.958;6.770;2022-12-18T11:36:02;2.10;99.90
2647;DHT22;1333;50.958;6.770;2022-12-18T11:38:33;2.00;99.90
2647;DHT22;1333;50.958;6.770;2022-12-18T11:41:29;1.90;99.90
2647;DHT22;1333;50.958;6.770;2022-12-18T11:47:34;1.60;99.90
2647;DHT22;1333;50.958;6.770;2022-12-18T11:50:28;1.40;99.90
2647;DHT22;1333;50.958;6.770;2022-12-18T11:52:55;1.30;99.90
2647;DHT22;1333;50.958;6.770;2022-12-18T11:55:51;1.10;99.90
2647;DHT22;1333;50.958;6.770;2022-12-18T12:06:38;0.50;99.90
2647;DHT22;1333;50.958;6.770;2022-12-18T12:14:49;0.30;99.90
2647;DHT22;1333;50.958;6.770;2022-12-18T12:20:06;0.20;99.90
2647;DHT22;1333;50.958;6.770;2022-12-18T12:23:19;0.20;99.90
2647;DHT22;1333;50.958;6.770;2022-12-18T12:33:59;0.00;99.90
2647;DHT22;1333;50.958;6.770;2022-12-18T12:39:14;0.10;99.90
2647;DHT22;1333;50.958;6.770;2022-12-18T12:41:42;0.10;99.90
2647;DHT22;1333;50.958;6.770;2022-12-18T12:44:33;0.00;99.90
2647;DHT22;1333;50.958;6.770;2022-12-18T12:47:18;0.10;99.90
2647;DHT22;1333;50.958;6.770;2022-12-18T12:49:47;0.00;99.90
2647;DHT22;1333;50.958;6.770;2022-12-18T12:52:43;0.00;99.90
2647;DHT22;1333;50.958;6.770;2022-12-18T12:55:17;0.00;99.90
2647;DHT22;1333;50.958;6.770;2022-12-18T12:58:07;0.10;99.90
2647;DHT22;1333;50.958;6.770;2022-12-18T13:00:53;0.20;99.90
2647;DHT22;1333;50.958;6.770;2022-12-18T13:06:33;0.20;99.90
2647;DHT22;1333;50.958;6.770;2022-12-18T13:09:02;0.20;99.90
2647;DHT22;1333;50.958;6.770;2022-12-18T13:11:39;0.20;99.90
2647;DHT22;1333;50.958;6.770;2022-12-18T13:14:28;0.20;99.90
2647;DHT22;1333;50.958;6.770;2022-12-18T13:17:15;0.30;99.90
2647;DHT22;1333;50.958;6.770;2022-12-18T13:19:41;0.30;99.90
2647;DHT22;1333;50.958;6.770;2022-12-18T13:25:01;0.20;99.90
2647;DHT22;1333;50.958;6.770;2022-12-18T13:27:58;0.10;99.90
2647;DHT22;1333;50.958;6.770;2022-12-18T13:46:02;0.00;99.90
2647;DHT22;1333;50.958;6.770;2022-12-18T13:48:31;-0.10;99.90
2647;DHT22;1333;50.958;6.770;2022-12-18T13:51:03;-0.10;99.90
2647;DHT22;1333;50.958;6.770;2022-12-18T13:56:46;-0.10;99.90
2647;DHT22;1333;50.958;6.770;2022-12-18T13:59:22;-0.20;99.90
2647;DHT22;1333;50.958;6.770;2022-12-18T14:01:50;-0.20;99.90
2647;DHT22;1333;50.958;6.770;2022-12-18T14:04:30;-0.30;99.90
2647;DHT22;1333;50.958;6.770;2022-12-18T14:07:07;-0.30;99.90
2647;DHT22;1333;50.958;6.770;2022-12-18T14:09:39;-0.30;99.90
2647;DHT22;1333;50.958;6.770;2022-12-18T14:12:06;-0.40;99.90
2647;DHT22;1333;50.958;6.770;2022-12-18T14:14:52;-0.40;99.90
2647;DHT22;1333;50.958;6.770;2022-12-18T14:17:18;-0.50;99.90
2647;DHT22;1333;50.958;6.770;2022-12-18T14:19:49;-0.50;99.90
2647;DHT22;1333;50.958;6.770;2022-12-18T14:22:24;-0.50;99.90
2647;DHT22;1333;50.958;6.770;2022-12-18T14:27:43;-0.50;99.90
2647;DHT22;1333;50.958;6.770;2022-12-18T14:30:31;-0.60;99.90
2647;DHT22;1333;50.958;6.770;2022-12-18T14:35:30;-0.70;99.90
2647;DHT22;1333;50.958;6.770;2022-12-18T14:40:42;-0.70;99.90
2647;DHT22;1333;50.958;6.770;2022-12-18T14:43:11;-0.80;99.90
2647;DHT22;1333;50.958;6.770;2022-12-18T14:45:38;-0.80;99.90
2647;DHT22;1333;50.958;6.770;2022-12-18T14:48:52;-0.80;99.90
2647;DHT22;1333;50.958;6.770;2022-12-18T14:51:03;-0.90;99.90
2647;DHT22;1333;50.958;6.770;2022-12-18T14:53:44;-0.90;99.90
2647;DHT22;1333;50.958;6.770;2022-12-18T14:56:21;-0.90;99.90
2647;DHT22;1333;50.958;6.770;2022-12-18T14:58:50;-1.00;99.90
2647;DHT22;1333;50.958;6.770;2022-12-18T15:01:28;-1.00;99.90
2647;DHT22;1333;50.958;6.770;2022-12-18T15:03:56;-1.00;99.90
2647;DHT22;1333;50.958;6.770;2022-12-18T15:06:31;-1.00;99.90
2647;DHT22;1333;50.958;6.770;2022-12-18T15:08:59;-1.00;99.90
2647;DHT22;1333;50.958;6.770;2022-12-18T15:14:03;-1.00;99.90
2647;DHT22;1333;50.958;6.770;2022-12-18T15:16:50;-1.00;99.90
2647;DHT22;1333;50.958;6.770;2022-12-18T15:19:16;-1.10;99.90
2647;DHT22;1333;50.958;6.770;2022-12-18T15:21:43;-1.10;99.90
2647;DHT22;1333;50.958;6.770;2022-12-18T15:24:18;-1.20;99.90
2647;DHT22;1333;50.958;6.770;2022-12-18T15:26:44;-1.20;99.90
2647;DHT22;1333;50.958;6.770;2022-12-18T15:29:21;-1.20;99.90
2647;DHT22;1333;50.958;6.770;2022-12-18T15:31:59;-1.20;99.90
2647;DHT22;1333;50.958;6.770;2022-12-18T15:34:25;-1.20;99.90
2647;DHT22;1333;50.958;6.770;2022-12-18T15:36:51;-1.30;99.90
2647;DHT22;1333;50.958;6.770;2022-12-18T15:39:17;-1.20;99.90
2647;DHT22;1333;50.958;6.770;2022-12-18T15:41:42;-1.30;99.90
2647;DHT22;1333;50.958;6.770;2022-12-18T15:44:28;-1.30;99.90
2647;DHT22;1333;50.958;6.770;2022-12-18T15:46:54;-1.30;99.90
2647;DHT22;1333;50.958;6.770;2022-12-18T15:49:20;-1.40;99.90
2647;DHT22;1333;50.958;6.770;2022-12-18T15:51:54;-1.40;99.90
2647;DHT22;1333;50.958;6.770;2022-12-18T15:54:21;-1.40;99.90
2647;DHT22;1333;50.958;6.770;2022-12-18T15:57:11;-1.40;99.90
2647;DHT22;1333;50.958;6.770;2022-12-18T15:59:49;-1.40;99.90
2647;DHT22;1333;50.958;6.770;2022-12-18T16:02:17;-1.50;99.90
2647;DHT22;1333;50.958;6.770;2022-12-18T16:04:43;-1.50;99.90
2647;DHT22;1333;50.958;6.770;2022-12-18T16:07:09;-1.50;99.90
2647;DHT22;1333;50.958;6.770;2022-12-18T16:09:35;-1.50;99.90
2647;DHT22;1333;50.958;6.770;2022-12-18T16:12:01;-1.50;99.90
2647;DHT22;1333;50.958;6.770;2022-12-18T16:14:29;-1.50;99.90
2647;DHT22;1333;50.958;6.770;2022-12-18T16:17:00;-1.50;99.90
2647;DHT22;1333;50.958;6.770;2022-12-18T16:19:27;-1.50;99.90
2647;DHT22;1333;50.958;6.770;2022-12-18T16:21:54;-1.50;99.90
2647;DHT22;1333;50.958;6.770;2022-12-18T16:24:23;-1.50;99.90
2647;DHT22;1333;50.958;6.770;2022-12-18T16:26:50;-1.50;99.90
2647;DHT22;1333;50.958;6.770;2022-12-18T16:29:22;-1.50;99.90
2647;DHT22;1333;50.958;6.770;2022-12-18T16:31:59;-1.50;99.90
2647;DHT22;1333;50.958;6.770;2022-12-18T16:34:27;-1.60;99.90
2647;DHT22;1333;50.958;6.770;2022-12-18T16:37:05;-1.50;99.90
2647;DHT22;1333;50.958;6.770;2022-12-18T16:39:31;-1.50;99.90
2647;DHT22;1333;50.958;6.770;2022-12-18T16:41:58;-1.60;99.90
2647;DHT22;1333;50.958;6.770;2022-12-18T16:44:24;-1.60;99.90
2647;DHT22;1333;50.958;6.770;2022-12-18T16:46:49;-1.60;99.90
2647;DHT22;1333;50.958;6.770;2022-12-18T16:49:19;-1.50;99.90
2647;DHT22;1333;50.958;6.770;2022-12-18T16:51:48;-1.50;99.90
2647;DHT22;1333;50.958;6.770;2022-12-18T16:54:13;-1.50;99.90
2647;DHT22;1333;50.958;6.770;2022-12-18T16:56:39;-1.50;99.90
2647;DHT22;1333;50.958;6.770;2022-12-18T16:59:07;-1.50;99.90
2647;DHT22;1333;50.958;6.770;2022-12-18T17:01:34;-1.50;99.90
2647;DHT22;1333;50.958;6.770;2022-12-18T17:04:03;-1.50;99.90
2647;DHT22;1333;50.958;6.770;2022-12-18T17:06:31;-1.50;99.90
2647;DHT22;1333;50.958;6.770;2022-12-18T17:08:59;-1.50;99.90
2647;DHT22;1333;50.958;6.770;2022-12-18T17:11:26;-1.50;99.90
2647;DHT22;1333;50.958;6.770;2022-12-18T17:13:52;-1.50;99.90
2647;DHT22;1333;50.958;6.770;2022-12-18T17:16:18;-1.60;99.90
2647;DHT22;1333;50.958;6.770;2022-12-18T17:18:44;-1.60;99.90
2647;DHT22;1333;50.958;6.770;2022-12-18T17:21:10;-1.60;99.90
2647;DHT22;1333;50.958;6.770;2022-12-18T17:23:37;-1.60;99.90
2647;DHT22;1333;50.958;6.770;2022-12-18T17:26:03;-1.60;99.90
2647;DHT22;1333;50.958;6.770;2022-12-18T17:28:31;-1.60;99.90
2647;DHT22;1333;50.958;6.770;2022-12-18T17:30:57;-1.60;99.90
2647;DHT22;1333;50.958;6.770;2022-12-18T17:33:23;-1.60;99.90
2647;DHT22;1333;50.958;6.770;2022-12-18T17:35:49;-1.70;99.90
2647;DHT22;1333;50.958;6.770;2022-12-18T17:38:17;-1.70;99.90
2647;DHT22;1333;50.958;6.770;2022-12-18T17:40:43;-1.70;99.90
2647;DHT22;1333;50.958;6.770;2022-12-18T17:43:09;-1.70;99.90
2647;DHT22;1333;50.958;6.770;2022-12-18T17:45:36;-1.70;99.90
2647;DHT22;1333;50.958;6.770;2022-12-18T17:48:03;-1.70;99.90
2647;DHT22;1333;50.958;6.770;2022-12-18T17:50:30;-1.70;99.90
2647;DHT22;1333;50.958;6.770;2022-12-18T17:52:57;-1.70;99.90
2647;DHT22;1333;50.958;6.770;2022-12-18T17:55:23;-1.70;99.90
2647;DHT22;1333;50.958;6.770;2022-12-18T17:57:51;-1.80;99.90
2647;DHT22;1333;50.958;6.770;2022-12-18T18:00:18;-1.80;99.90
2647;DHT22;1333;50.958;6.770;2022-12-18T18:02:43;-1.70;99.90
2647;DHT22;1333;50.958;6.770;2022-12-18T18:05:09;-1.70;99.90
2647;DHT22;1333;50.958;6.770;2022-12-18T18:07:37;-1.70;99.90
2647;DHT22;1333;50.958;6.770;2022-12-18T18:10:04;-1.70;99.90
2647;DHT22;1333;50.958;6.770;2022-12-18T18:12:30;-1.70;99.90
2647;DHT22;1333;50.958;6.770;2022-12-18T18:15:14;-1.70;99.90
2647;DHT22;1333;50.958;6.770;2022-12-18T18:17:41;-1.70;99.90
2647;DHT22;1333;50.958;6.770;2022-12-18T18:20:07;-1.70;99.90
2647;DHT22;1333;50.958;6.770;2022-12-18T18:22:33;-1.70;99.90
2647;DHT22;1333;50.958;6.770;2022-12-18T18:24:59;-1.70;99.90